createdAt,value
2023-01-03T00:00:11.095Z,61.13
2023-01-03T00:02:40.923Z,61.47
2023-01-03T00:05:10.232Z,61.28
2023-01-03T00:07:38.539Z,61.03
2023-01-03T00:10:09.070Z,61.46
2023-01-03T00:12:37.135Z,61.73
2023-01-03T00:15:06.506Z,61.88
2023-01-03T00:17:34.852Z,61.77
2023-01-03T00:20:04.688Z,61.83
2023-01-03T00:22:33.706Z,61.77
2023-01-03T00:25:02.153Z,61.77
2023-01-03T00:27:30.599Z,62.08
2023-01-03T00:29:58.970Z,62.17
2023-01-03T00:32:27.366Z,62.64
2023-01-03T00:34:58.970Z,62.53
2023-01-03T00:37:32.840Z,62.62
2023-01-03T00:40:01.100Z,62.59
2023-01-03T00:42:29.619Z,62.70
2023-01-03T00:44:58.019Z,62.69
2023-01-03T00:47:26.479Z,62.57
2023-01-03T00:49:54.953Z,62.61
2023-01-03T00:52:23.321Z,62.62
2023-01-03T00:54:53.017Z,62.39
2023-01-03T00:57:21.384Z,62.38
2023-01-03T00:59:49.743Z,62.33
2023-01-03T01:02:20.520Z,62.31
2023-01-03T01:04:48.996Z,62.60
2023-01-03T01:07:17.422Z,62.47
2023-01-03T01:09:45.799Z,62.11
2023-01-03T01:12:15.566Z,62.16
2023-01-03T01:14:43.914Z,62.33
2023-01-03T01:17:12.282Z,62.26
2023-01-03T01:19:42.519Z,62.60
2023-01-03T01:22:11.980Z,62.48
2023-01-03T01:24:40.776Z,62.62
2023-01-03T01:27:09.206Z,62.50
2023-01-03T01:29:39.554Z,62.54
2023-01-03T01:32:08.298Z,62.61
2023-01-03T01:34:36.811Z,62.80
2023-01-03T01:37:05.241Z,62.85
2023-01-03T01:39:33.573Z,62.84
2023-01-03T01:42:23.189Z,62.90
2023-01-03T01:44:57.097Z,62.89
2023-01-03T01:47:34.434Z,63.02
2023-01-03T01:50:13.130Z,62.97
2023-01-03T01:52:46.757Z,62.87
2023-01-03T01:55:17.754Z,62.83
2023-01-03T01:57:47.168Z,63.03
2023-01-03T02:00:17.400Z,63.00
2023-01-03T02:02:48.158Z,62.90
2023-01-03T02:05:19.265Z,63.10
2023-01-03T02:07:51.132Z,63.29
2023-01-03T02:10:22.928Z,63.43
2023-01-03T02:13:07.807Z,63.46
2023-01-03T02:16:05.614Z,63.28
2023-01-03T02:18:48.111Z,63.56
2023-01-03T02:21:44.441Z,63.43
2023-01-03T02:24:38.498Z,63.62
2023-01-03T02:27:21.783Z,63.56
2023-01-03T02:30:21.158Z,62.50
2023-01-03T02:32:54.450Z,62.77
2023-01-03T02:35:31.253Z,63.20
2023-01-03T02:38:10.472Z,63.49
2023-01-03T02:40:44.538Z,62.75
2023-01-03T02:43:19.345Z,62.67
2023-01-03T02:46:07.792Z,62.60
2023-01-03T02:48:44.213Z,62.93
2023-01-03T02:51:19.136Z,63.13
2023-01-03T02:53:50.528Z,63.46
2023-01-03T02:56:23.244Z,63.19
2023-01-03T02:58:57.194Z,62.93
2023-01-03T03:01:30.181Z,63.30
2023-01-03T03:04:01.054Z,63.38
2023-01-03T03:06:38.188Z,63.48
2023-01-03T03:09:06.636Z,63.30
2023-01-03T03:11:55.677Z,63.32
2023-01-03T03:14:29.542Z,63.66
2023-01-03T03:17:04.536Z,63.60
2023-01-03T03:19:52.420Z,63.60
2023-01-03T03:22:56.022Z,63.14
2023-01-03T03:25:28.264Z,63.65
2023-01-03T03:28:17.662Z,63.38
2023-01-03T03:30:49.937Z,63.04
2023-01-03T03:33:21.630Z,62.53
2023-01-03T03:35:56.330Z,62.28
2023-01-03T03:38:31.932Z,61.99
2023-01-03T03:41:27.946Z,62.27
2023-01-03T03:44:20.068Z,62.36
2023-01-03T03:46:55.199Z,62.50
2023-01-03T03:49:40.229Z,62.59
2023-01-03T03:52:13.962Z,62.60
2023-01-03T03:54:43.284Z,62.99
2023-01-03T03:57:17.736Z,62.91
2023-01-03T03:59:51.376Z,62.64
2023-01-03T04:02:21.468Z,62.65
2023-01-03T04:04:56.877Z,62.15
2023-01-03T04:07:25.291Z,62.51
2023-01-03T04:09:53.759Z,62.42
2023-01-03T04:12:22.237Z,62.10
2023-01-03T04:14:50.518Z,61.82
2023-01-03T04:17:19.115Z,61.46
2023-01-03T04:19:47.419Z,61.37
2023-01-03T04:22:17.235Z,61.13
2023-01-03T04:24:45.605Z,61.10
2023-01-03T04:27:14.292Z,60.92
2023-01-03T04:29:42.689Z,61.00
2023-01-03T04:32:11.350Z,61.05
2023-01-03T04:34:39.782Z,60.64
2023-01-03T04:37:08.166Z,60.71
2023-01-03T04:39:37.988Z,60.48
2023-01-03T04:42:27.329Z,60.53
2023-01-03T04:44:54.617Z,61.13
2023-01-03T04:47:23.000Z,61.47
2023-01-03T04:49:51.325Z,61.35
2023-01-03T04:52:19.682Z,61.41
2023-01-03T04:54:49.464Z,61.52
2023-01-03T04:57:17.861Z,61.55
2023-01-03T04:59:46.238Z,61.34
2023-01-03T05:02:14.827Z,61.42
2023-01-03T05:04:43.310Z,61.49
2023-01-03T05:07:11.802Z,61.83
2023-01-03T05:09:40.061Z,61.65
2023-01-03T05:12:12.410Z,61.40
2023-01-03T05:14:41.683Z,61.57
2023-01-03T05:17:11.720Z,61.86
2023-01-03T05:20:00.553Z,61.93
2023-01-03T05:22:46.691Z,61.74
2023-01-03T05:25:32.347Z,61.80
2023-01-03T05:28:03.213Z,61.93
2023-01-03T05:30:31.673Z,61.96
2023-01-03T05:33:00.106Z,61.63
2023-01-03T05:35:28.405Z,62.01
2023-01-03T05:37:56.851Z,61.70
2023-01-03T05:40:25.176Z,61.67
2023-01-03T05:42:53.472Z,61.71
2023-01-03T05:45:26.046Z,61.94
2023-01-03T05:47:54.431Z,61.94
2023-01-03T05:50:22.815Z,62.14
2023-01-03T05:52:51.140Z,62.04
2023-01-03T05:55:19.739Z,61.85
2023-01-03T05:57:48.377Z,62.22
2023-01-03T06:00:18.092Z,62.39
2023-01-03T06:02:47.983Z,62.40
2023-01-03T06:05:16.524Z,62.19
2023-01-03T06:07:44.850Z,62.21
2023-01-03T06:10:13.338Z,62.12
2023-01-03T06:12:41.661Z,62.24
2023-01-03T06:15:10.737Z,62.00
2023-01-03T06:17:58.176Z,62.31
2023-01-03T06:20:29.075Z,62.57
2023-01-03T06:22:57.998Z,62.19
2023-01-03T06:25:26.632Z,61.97
2023-01-03T06:27:54.968Z,62.37
2023-01-03T06:30:23.293Z,62.46
2023-01-03T06:32:51.881Z,62.11
2023-01-03T06:35:20.308Z,62.10
2023-01-03T06:37:50.033Z,62.07
2023-01-03T06:40:19.550Z,62.36
2023-01-03T06:42:47.837Z,62.76
2023-01-03T06:45:34.503Z,62.42
2023-01-03T06:48:23.564Z,62.69
2023-01-03T06:51:09.728Z,62.61
2023-01-03T06:53:42.558Z,62.78
2023-01-03T06:56:12.108Z,62.48
2023-01-03T06:58:40.805Z,62.55
2023-01-03T07:01:09.345Z,62.91
2023-01-03T07:03:37.763Z,62.88
2023-01-03T07:06:06.215Z,62.55
2023-01-03T07:08:34.629Z,62.92
2023-01-03T07:11:04.318Z,62.85
2023-01-03T07:13:49.982Z,63.24
2023-01-03T07:16:19.723Z,63.22
2023-01-03T07:18:55.012Z,63.25
2023-01-03T07:21:24.944Z,63.24
2023-01-03T07:23:54.512Z,63.21
2023-01-03T07:26:25.592Z,63.04
2023-01-03T07:28:54.380Z,63.21
2023-01-03T07:31:22.676Z,63.41
2023-01-03T07:33:51.568Z,63.37
2023-01-03T07:36:20.197Z,63.36
2023-01-03T07:38:49.345Z,63.19
2023-01-03T07:41:18.164Z,63.48
2023-01-03T07:43:49.081Z,63.46
2023-01-03T07:46:19.541Z,63.44
2023-01-03T07:48:49.334Z,63.22
2023-01-03T07:51:19.912Z,63.47
2023-01-03T07:53:50.854Z,63.78
2023-01-03T07:56:20.596Z,63.77
2023-01-03T07:58:52.085Z,63.76
2023-01-03T08:01:22.751Z,63.55
2023-01-03T08:03:52.655Z,63.63
2023-01-03T08:06:25.385Z,63.90
2023-01-03T08:09:08.304Z,63.71
2023-01-03T08:11:53.869Z,63.93
2023-01-03T08:14:26.232Z,63.86
2023-01-03T08:16:55.654Z,63.85
2023-01-03T08:19:24.782Z,63.92
2023-01-03T08:21:53.238Z,64.02
2023-01-03T08:24:21.647Z,64.41
2023-01-03T08:26:49.979Z,64.49
2023-01-03T08:29:18.750Z,64.35
2023-01-03T08:31:55.009Z,63.97
2023-01-03T08:34:29.844Z,64.36
2023-01-03T08:37:02.237Z,64.85
2023-01-03T08:39:36.788Z,64.35
2023-01-03T08:42:08.859Z,64.63
2023-01-03T08:44:37.908Z,64.62
2023-01-03T08:47:10.730Z,64.60
2023-01-03T08:49:40.595Z,64.43
2023-01-03T08:52:09.592Z,64.32
2023-01-03T08:54:39.326Z,64.30
2023-01-03T08:57:08.024Z,64.18
2023-01-03T08:59:36.566Z,63.92
2023-01-03T09:02:05.707Z,63.97
2023-01-03T09:04:35.643Z,64.13
2023-01-03T09:07:04.050Z,63.85
2023-01-03T09:09:32.679Z,64.37
2023-01-03T09:12:01.176Z,64.29
2023-01-03T09:14:31.970Z,64.14
2023-01-03T09:17:00.525Z,63.89
2023-01-03T09:19:28.967Z,63.76
2023-01-03T09:21:58.958Z,63.95
2023-01-03T09:24:27.356Z,63.82
2023-01-03T09:26:55.767Z,63.58
2023-01-03T09:29:25.116Z,63.53
2023-01-03T09:31:53.482Z,63.28
2023-01-03T09:34:21.882Z,63.34
2023-01-03T09:36:50.220Z,63.58
2023-01-03T09:39:20.580Z,63.25
2023-01-03T09:42:10.543Z,62.77
2023-01-03T09:44:40.303Z,62.07
2023-01-03T09:47:13.801Z,62.68
2023-01-03T09:50:04.624Z,62.70
2023-01-03T09:52:52.200Z,61.50
2023-01-03T09:55:47.002Z,62.13
2023-01-03T09:58:34.236Z,61.72
2023-01-03T10:01:33.396Z,61.48
2023-01-03T10:04:12.916Z,61.69
2023-01-03T10:06:52.202Z,61.67
2023-01-03T10:09:32.825Z,61.38
2023-01-03T10:12:15.295Z,61.25
2023-01-03T10:15:04.043Z,61.20
2023-01-03T10:17:41.176Z,61.06
2023-01-03T10:20:20.046Z,61.13
2023-01-03T10:22:50.197Z,60.65
2023-01-03T10:25:21.848Z,60.22
2023-01-03T10:27:57.361Z,59.65
2023-01-03T10:30:38.603Z,59.27
2023-01-03T10:33:25.319Z,59.53
2023-01-03T10:35:54.017Z,60.15
2023-01-03T10:38:23.296Z,59.98
2023-01-03T10:40:54.548Z,59.92
2023-01-03T10:43:30.096Z,59.71
2023-01-03T10:46:00.481Z,59.82
2023-01-03T10:49:00.244Z,59.59
2023-01-03T10:51:29.735Z,59.73
2023-01-03T10:54:01.368Z,59.11
2023-01-03T10:56:32.055Z,59.25
2023-01-03T10:59:17.422Z,58.41
2023-01-03T11:01:58.449Z,58.14
2023-01-03T11:04:27.361Z,58.28
2023-01-03T11:07:06.236Z,58.10
2023-01-03T11:09:37.423Z,58.36
2023-01-03T11:12:12.783Z,57.04
2023-01-03T11:14:51.518Z,57.38
2023-01-03T11:17:21.672Z,57.85
2023-01-03T11:19:51.614Z,57.84
2023-01-03T11:22:37.529Z,57.64
2023-01-03T11:25:35.305Z,57.81
2023-01-03T11:28:28.759Z,56.83
2023-01-03T11:31:04.326Z,57.06
2023-01-03T11:33:46.062Z,57.30
2023-01-03T11:36:35.437Z,56.90
2023-01-03T11:39:26.503Z,57.01
2023-01-03T11:42:16.971Z,57.63
2023-01-03T11:45:07.049Z,56.56
2023-01-03T11:47:46.785Z,55.32
2023-01-03T11:50:29.179Z,55.98
2023-01-03T11:53:03.703Z,56.53
2023-01-03T11:56:15.182Z,56.55
2023-01-03T11:59:09.965Z,56.57
2023-01-03T12:02:01.922Z,55.93
2023-01-03T12:04:41.413Z,55.36
2023-01-03T12:07:47.115Z,55.50
2023-01-03T12:10:17.224Z,55.91
2023-01-03T12:13:10.453Z,55.99
2023-01-03T12:15:48.495Z,56.00
2023-01-03T12:18:27.121Z,56.59
2023-01-03T12:21:04.259Z,56.44
2023-01-03T12:23:41.848Z,56.37
2023-01-03T12:26:13.925Z,56.19
2023-01-03T12:28:44.832Z,56.59
2023-01-03T12:31:27.893Z,56.69
2023-01-03T12:34:09.001Z,56.41
2023-01-03T12:36:43.892Z,56.55
2023-01-03T12:39:33.071Z,56.59
2023-01-03T12:42:09.390Z,56.69
2023-01-03T12:44:41.954Z,56.74
2023-01-03T12:47:22.279Z,56.91
2023-01-03T12:49:57.509Z,57.02
2023-01-03T12:52:30.318Z,56.46
2023-01-03T12:55:05.467Z,56.57
2023-01-03T12:58:00.894Z,56.43
2023-01-03T13:00:50.052Z,56.56
2023-01-03T13:03:22.690Z,57.06
2023-01-03T13:05:55.118Z,56.56
2023-01-03T13:08:33.170Z,56.37
2023-01-03T13:11:04.485Z,56.29
2023-01-03T13:13:34.387Z,56.75
2023-01-03T13:16:31.919Z,56.11
2023-01-03T13:19:33.488Z,56.27
2023-01-03T13:22:05.269Z,56.24
2023-01-03T13:24:46.350Z,56.11
2023-01-03T13:27:36.467Z,55.99
2023-01-03T13:30:19.811Z,56.64
2023-01-03T13:32:53.783Z,56.55
2023-01-03T13:35:32.693Z,56.41
2023-01-03T13:38:29.165Z,56.99
2023-01-03T13:41:18.842Z,56.86
2023-01-03T13:43:51.558Z,57.12
2023-01-03T13:46:24.954Z,56.93
2023-01-03T13:48:59.250Z,57.31
2023-01-03T13:51:50.716Z,57.50
2023-01-03T13:55:06.460Z,57.77
2023-01-03T13:57:53.578Z,57.91
2023-01-03T14:00:24.803Z,57.94
2023-01-03T14:03:32.975Z,57.67
2023-01-03T14:06:48.926Z,58.41
2023-01-03T14:09:41.212Z,58.11
2023-01-03T14:12:34.085Z,58.10
2023-01-03T14:15:24.838Z,58.16
2023-01-03T14:17:57.482Z,57.97
2023-01-03T14:20:30.064Z,58.46
2023-01-03T14:23:17.159Z,58.37
2023-01-03T14:25:53.430Z,58.62
2023-01-03T14:28:24.440Z,58.64
2023-01-03T14:31:02.804Z,58.81
2023-01-03T14:33:39.509Z,58.92
2023-01-03T14:36:09.659Z,58.93
2023-01-03T14:38:38.031Z,58.88
2023-01-03T14:41:06.759Z,59.20
2023-01-03T14:43:36.371Z,59.53
2023-01-03T14:46:09.178Z,59.44
2023-01-03T14:48:37.528Z,59.32
2023-01-03T14:51:07.468Z,59.66
2023-01-03T14:53:36.505Z,60.00
2023-01-03T14:56:06.591Z,59.92
2023-01-03T14:58:39.805Z,59.89
2023-01-03T15:01:13.236Z,59.95
2023-01-03T15:03:44.477Z,60.22
2023-01-03T15:06:22.832Z,60.07
2023-01-03T15:08:53.599Z,60.12
2023-01-03T15:11:31.450Z,59.89
2023-01-03T15:14:04.222Z,59.93
2023-01-03T15:16:37.442Z,60.12
2023-01-03T15:19:13.272Z,60.15
2023-01-03T15:21:43.131Z,60.60
2023-01-03T15:24:17.902Z,60.49
2023-01-03T15:26:47.722Z,60.52
2023-01-03T15:29:18.342Z,60.61
2023-01-03T15:31:58.247Z,60.40
2023-01-03T15:34:38.543Z,60.54
2023-01-03T15:37:14.800Z,60.63
2023-01-03T15:39:46.350Z,60.53
2023-01-03T15:42:45.846Z,60.82
2023-01-03T15:45:20.814Z,60.75
2023-01-03T15:47:51.700Z,60.75
2023-01-03T15:50:21.419Z,60.70
2023-01-03T15:52:50.629Z,60.76
2023-01-03T15:55:19.400Z,60.47
2023-01-03T15:57:52.392Z,60.97
2023-01-03T16:00:23.780Z,60.97
2023-01-03T16:02:54.197Z,60.69
2023-01-03T16:05:23.550Z,60.87
2023-01-03T16:07:52.678Z,60.72
2023-01-03T16:10:22.590Z,60.68
2023-01-03T16:12:51.058Z,60.27
2023-01-03T16:15:22.082Z,60.60
2023-01-03T16:17:52.903Z,60.68
2023-01-03T16:20:21.712Z,60.86
2023-01-03T16:23:01.062Z,60.21
2023-01-03T16:25:30.659Z,60.88
2023-01-03T16:27:59.143Z,60.81
2023-01-03T16:30:27.438Z,61.10
2023-01-03T16:32:57.306Z,60.73
2023-01-03T16:35:25.681Z,60.63
2023-01-03T16:37:53.987Z,60.98
2023-01-03T16:40:22.994Z,60.83
2023-01-03T16:42:51.356Z,60.54
2023-01-03T16:45:19.902Z,60.23
2023-01-03T16:47:50.169Z,60.30
2023-01-03T16:50:22.801Z,60.74
2023-01-03T16:52:55.131Z,60.66
2023-01-03T16:55:26.489Z,60.76
2023-01-03T16:57:55.398Z,60.76
2023-01-03T17:00:26.117Z,60.76
2023-01-03T17:02:56.120Z,60.40
2023-01-03T17:05:27.188Z,60.13
2023-01-03T17:08:00.806Z,60.26
2023-01-03T17:10:32.003Z,60.42
2023-01-03T17:13:07.018Z,60.28
2023-01-03T17:15:40.843Z,60.58
2023-01-03T17:18:18.501Z,60.47
2023-01-03T17:20:53.773Z,60.66
2023-01-03T17:23:22.691Z,60.65
2023-01-03T17:25:52.072Z,60.55
2023-01-03T17:28:21.453Z,60.49
2023-01-03T17:30:56.852Z,60.71
2023-01-03T17:33:30.428Z,60.64
2023-01-03T17:36:03.817Z,60.53
2023-01-03T17:38:34.516Z,60.44
2023-01-03T17:41:03.008Z,60.62
2023-01-03T17:43:32.406Z,60.62
2023-01-03T17:46:23.764Z,60.90
2023-01-03T17:49:09.967Z,60.61
2023-01-03T17:51:40.182Z,60.58
2023-01-03T17:54:10.471Z,60.54
2023-01-03T17:56:41.125Z,60.50
2023-01-03T17:59:13.098Z,60.43
2023-01-03T18:01:41.977Z,60.52
2023-01-03T18:04:11.427Z,60.72
2023-01-03T18:06:41.760Z,60.71
2023-01-03T18:09:16.655Z,60.49
2023-01-03T18:11:45.292Z,60.35
2023-01-03T18:14:15.833Z,60.47
2023-01-03T18:16:47.716Z,60.23
2023-01-03T18:19:19.993Z,60.59
2023-01-03T18:21:50.092Z,60.80
2023-01-03T18:24:20.966Z,60.80
2023-01-03T18:26:53.370Z,61.14
2023-01-03T18:29:21.963Z,60.93
2023-01-03T18:31:50.428Z,60.75
2023-01-03T18:34:18.758Z,60.54
2023-01-03T18:36:52.227Z,60.67
2023-01-03T18:39:25.113Z,60.75
2023-01-03T18:41:53.791Z,60.60
2023-01-03T18:44:25.482Z,60.58
2023-01-03T18:46:54.063Z,60.83
2023-01-03T18:49:22.425Z,60.79
2023-01-03T18:51:54.682Z,60.75
2023-01-03T18:54:23.173Z,60.91
2023-01-03T18:56:51.842Z,60.98
2023-01-03T18:59:25.619Z,60.77
2023-01-03T19:01:54.029Z,60.98
2023-01-03T19:04:22.860Z,61.33
2023-01-03T19:06:53.158Z,61.13
2023-01-03T19:09:24.428Z,61.02
2023-01-03T19:11:54.334Z,61.05
2023-01-03T19:14:22.791Z,61.37
2023-01-03T19:16:51.179Z,61.65
2023-01-03T19:19:19.551Z,60.95
2023-01-03T19:21:49.253Z,61.19
2023-01-03T19:24:25.165Z,61.19
2023-01-03T19:26:56.211Z,61.49
2023-01-03T19:29:28.573Z,61.44
2023-01-03T19:31:58.268Z,60.70
2023-01-03T19:34:29.095Z,60.82
2023-01-03T19:36:58.689Z,61.49
2023-01-03T19:39:33.624Z,61.30
2023-01-03T19:42:24.230Z,61.32
2023-01-03T19:44:53.108Z,61.20
2023-01-03T19:47:21.615Z,61.05
2023-01-03T19:49:50.087Z,60.70
2023-01-03T19:52:19.078Z,60.39
2023-01-03T19:54:48.896Z,61.15
2023-01-03T19:57:22.137Z,61.17
2023-01-03T19:59:53.722Z,60.99
2023-01-03T20:02:39.839Z,60.94
2023-01-03T20:05:15.943Z,60.42
2023-01-03T20:07:44.400Z,60.48
2023-01-03T20:10:21.219Z,60.15
2023-01-03T20:12:53.363Z,60.08
2023-01-03T20:15:24.734Z,60.41
2023-01-03T20:17:53.308Z,60.45
2023-01-03T20:20:23.547Z,60.09
2023-01-03T20:23:06.261Z,60.19
2023-01-03T20:25:38.260Z,60.18
2023-01-03T20:28:07.363Z,60.09
2023-01-03T20:30:35.957Z,60.44
2023-01-03T20:33:04.685Z,60.23
2023-01-03T20:36:09.534Z,60.63
2023-01-03T20:38:27.204Z,60.94
2023-01-03T20:40:58.008Z,61.01
2023-01-03T20:43:26.587Z,60.69
2023-01-03T20:45:56.206Z,60.28
2023-01-03T20:48:26.503Z,60.46
2023-01-03T20:50:55.346Z,60.22
2023-01-03T20:53:25.944Z,60.66
2023-01-03T20:55:54.709Z,60.50
2023-01-03T20:58:26.353Z,60.88
2023-01-03T21:01:04.059Z,60.84
2023-01-03T21:03:33.329Z,60.74
2023-01-03T21:06:01.698Z,60.85
2023-01-03T21:08:47.408Z,60.40
2023-01-03T21:11:16.141Z,60.60
2023-01-03T21:13:45.820Z,60.14
2023-01-03T21:16:33.565Z,59.97
2023-01-03T21:19:11.608Z,60.01
2023-01-03T21:21:40.877Z,59.83
2023-01-03T21:24:11.731Z,60.09
2023-01-03T21:26:40.510Z,60.47
2023-01-03T21:29:10.510Z,60.41
2023-01-03T21:31:39.916Z,60.39
2023-01-03T21:34:14.515Z,60.48
2023-01-03T21:36:43.535Z,60.06
2023-01-03T21:39:12.367Z,60.04
2023-01-03T21:41:55.529Z,60.52
2023-01-03T21:44:25.290Z,60.07
2023-01-03T21:46:53.709Z,60.32
2023-01-03T21:49:22.496Z,60.49
2023-01-03T21:51:50.940Z,60.21
2023-01-03T21:54:19.202Z,60.24
2023-01-03T21:56:47.646Z,60.17
2023-01-03T21:59:17.119Z,60.36
2023-01-03T22:02:05.125Z,59.98
2023-01-03T22:04:34.000Z,59.60
2023-01-03T22:07:02.618Z,60.37
2023-01-03T22:09:49.282Z,60.10
2023-01-03T22:12:17.897Z,60.25
2023-01-03T22:14:46.889Z,60.12
2023-01-03T22:17:17.191Z,59.91
2023-01-03T22:19:45.691Z,60.26
2023-01-03T22:22:14.032Z,59.06
2023-01-03T22:24:42.417Z,58.81
2023-01-03T22:27:10.763Z,59.12
2023-01-03T22:29:39.150Z,59.16
2023-01-03T22:32:07.990Z,58.47
2023-01-03T22:34:40.632Z,58.44
2023-01-03T22:37:09.174Z,58.45
2023-01-03T22:39:37.483Z,58.42
2023-01-03T22:42:06.089Z,58.18
2023-01-03T22:44:34.419Z,58.76
2023-01-03T22:47:02.965Z,58.75
2023-01-03T22:49:31.378Z,58.31
2023-01-03T22:52:01.389Z,59.26
2023-01-03T22:54:29.814Z,59.07
2023-01-03T22:56:58.509Z,59.92
2023-01-03T22:59:27.038Z,59.98
2023-01-03T23:01:55.630Z,60.30
2023-01-03T23:04:24.442Z,60.89
2023-01-03T23:06:53.040Z,61.16
2023-01-03T23:09:23.737Z,60.58
2023-01-03T23:12:09.452Z,60.74
2023-01-03T23:14:37.688Z,60.84
2023-01-03T23:17:19.878Z,61.11
2023-01-03T23:19:48.181Z,61.79
2023-01-03T23:22:16.536Z,62.00
2023-01-03T23:24:46.931Z,61.98
2023-01-03T23:27:15.248Z,61.79
2023-01-03T23:29:43.609Z,62.26
2023-01-03T23:32:11.901Z,62.58
2023-01-03T23:34:40.200Z,62.66
2023-01-03T23:37:08.719Z,62.25
2023-01-03T23:39:37.111Z,62.31
2023-01-03T23:42:07.072Z,62.17
2023-01-03T23:44:35.326Z,62.48
2023-01-03T23:47:09.345Z,61.98
2023-01-03T23:49:39.995Z,62.25
2023-01-03T23:52:08.611Z,61.52
2023-01-03T23:54:37.056Z,62.21
2023-01-03T23:57:07.230Z,62.66
2023-01-03T23:59:35.716Z,62.49
